Time;durP1;ratioP1;P1;durP2;ratioP2;P2;SDS_P1;SDS_P2;PMS_P1;PMS_P2;Temp;Humidity;BMP_temperature;BMP_pressure;BME280_temperature;BME280_humidity;BME280_pressure;Samples;Min_cycle;Max_cycle;Signal;HPM_P1;HPM_P2
2021/06/22 00:01:39;;;;;;;8.82;7.35;;;;;;;-145.26;100.00;63821.50;4988707;28;20057;-75
2021/06/22 00:05:04;;;;;;;11.60;7.63;;;;;;;-145.26;100.00;63821.50;4987778;28;20100;-74
2021/06/22 00:08:28;;;;;;;10.85;8.90;;;;;;;-145.26;100.00;63821.50;5002969;28;20514;-75
2021/06/22 00:11:52;;;;;;;11.50;8.20;;;;;;;-145.26;100.00;63821.50;5009650;28;20038;-75
2021/06/22 00:15:17;;;;;;;11.65;7.95;;;;;;;-145.26;100.00;63821.50;5027472;28;20402;-75
2021/06/22 00:18:42;;;;;;;8.07;6.68;;;;;;;-145.26;100.00;63821.50;5028110;28;20044;-76
2021/06/22 00:22:06;;;;;;;9.90;8.10;;;;;;;-145.26;100.00;63821.50;5004605;28;20043;-75
2021/06/22 00:25:30;;;;;;;11.93;7.00;;;;;;;-145.26;100.00;63821.50;5019551;28;20046;-75
2021/06/22 00:28:54;;;;;;;10.73;7.88;;;;;;;-145.26;100.00;63821.50;5008411;28;20073;-75
2021/06/22 00:32:18;;;;;;;13.98;8.60;;;;;;;-145.26;100.00;63821.50;5008442;28;20446;-75
2021/06/22 00:35:42;;;;;;;14.00;8.38;;;;;;;-145.26;100.00;63821.50;5008703;28;20046;-72
2021/06/22 00:39:06;;;;;;;8.63;6.30;;;;;;;-145.26;100.00;63821.50;5010001;28;20041;-73
2021/06/22 00:42:30;;;;;;;12.60;7.78;;;;;;;-145.26;100.00;63821.50;5025446;28;20037;-76
2021/06/22 00:45:57;;;;;;;12.70;7.90;;;;;;;-145.26;100.00;63821.50;5027070;28;20518;-77
2021/06/22 00:49:21;;;;;;;14.00;7.72;;;;;;;-145.26;100.00;63821.50;5026903;28;20088;-76
2021/06/22 00:52:45;;;;;;;13.38;8.05;;;;;;;-145.26;100.00;63821.50;4994681;28;20038;-76
2021/06/22 00:56:09;;;;;;;11.90;8.13;;;;;;;-145.26;100.00;63821.50;5008288;28;20123;-78
2021/06/22 00:59:33;;;;;;;14.73;8.05;;;;;;;-145.26;100.00;63821.50;4989797;28;20646;-76
2021/06/22 01:03:00;;;;;;;11.38;6.45;;;;;;;-145.26;100.00;63821.50;4989422;28;20035;-76
2021/06/22 01:06:25;;;;;;;9.77;6.60;;;;;;;-145.26;100.00;63821.50;5008944;28;20045;-76
2021/06/22 01:09:49;;;;;;;10.38;5.85;;;;;;;-145.26;100.00;63821.50;5011972;28;20045;-75
2021/06/22 01:13:13;;;;;;;10.40;6.47;;;;;;;-145.26;100.00;63821.50;5011110;28;20046;-76
2021/06/22 01:16:37;;;;;;;8.20;6.30;;;;;;;-145.26;100.00;63821.50;4995812;28;20105;-76
2021/06/22 01:20:03;;;;;;;11.43;6.10;;;;;;;-145.26;100.00;63821.50;5011861;28;20038;-76
2021/06/22 01:23:27;;;;;;;12.32;6.50;;;;;;;-145.26;100.00;63821.50;4986132;28;20061;-77
2021/06/22 01:26:54;;;;;;;6.40;5.50;;;;;;;-145.26;100.00;63821.50;5008673;28;20049;-76
2021/06/22 01:30:18;;;;;;;9.20;6.32;;;;;;;-145.26;100.00;63821.50;5013749;23;20400;-65
2021/06/22 01:33:46;;;;;;;7.00;5.38;;;;;;;-145.26;100.00;63821.50;5069807;28;20044;-64
2021/06/22 01:37:10;;;;;;;7.10;5.05;;;;;;;-145.26;100.00;63821.50;5069749;28;20094;-64
2021/06/22 01:40:47;;;;;;;7.47;4.40;;;;;;;-145.26;100.00;63821.50;5071261;28;20044;-64
2021/06/22 01:44:12;;;;;;;7.82;4.68;;;;;;;-145.26;100.00;63821.50;5071223;28;20506;-64
2021/06/22 01:47:36;;;;;;;9.15;4.80;;;;;;;-145.26;100.00;63821.50;5071135;28;20041;-64
2021/06/22 01:51:02;;;;;;;6.07;5.07;;;;;;;-145.26;100.00;63821.50;5069944;28;20036;-64
2021/06/22 01:54:26;;;;;;;10.60;5.15;;;;;;;-145.26;100.00;63821.50;5057579;28;20044;-64
2021/06/22 01:57:50;;;;;;;6.47;4.18;;;;;;;-145.26;100.00;63821.50;5070755;28;20074;-64
2021/06/22 02:01:15;;;;;;;8.35;4.68;;;;;;;-145.26;100.00;63821.50;5070847;28;20032;-64
2021/06/22 02:04:39;;;;;;;6.38;5.15;;;;;;;-145.26;100.00;63821.50;5070076;28;20191;-64
2021/06/22 02:08:03;;;;;;;7.50;5.10;;;;;;;-145.26;100.00;63821.50;5069084;28;20101;-64
2021/06/22 02:11:27;;;;;;;7.82;4.90;;;;;;;-145.26;100.00;63821.50;5051163;28;20056;-64
2021/06/22 02:14:51;;;;;;;4.60;3.78;;;;;;;-145.26;100.00;63821.50;5049354;28;20084;-64
2021/06/22 02:18:15;;;;;;;5.10;4.60;;;;;;;-145.26;100.00;63821.50;5050414;28;20106;-64
2021/06/22 02:21:39;;;;;;;5.38;4.57;;;;;;;-145.26;100.00;63821.50;5056958;28;20044;-64
2021/06/22 02:25:04;;;;;;;5.40;4.43;;;;;;;-145.26;100.00;63821.50;5070556;28;20040;-64
2021/06/22 02:28:29;;;;;;;5.72;4.10;;;;;;;-145.26;100.00;63821.50;5070562;28;20074;-64
2021/06/22 02:31:54;;;;;;;5.57;4.63;;;;;;;-145.26;100.00;63821.50;5070227;28;20049;-64
2021/06/22 02:35:18;;;;;;;6.32;4.63;;;;;;;-145.26;100.00;63821.50;5070214;28;20041;-65
2021/06/22 02:38:42;;;;;;;6.82;4.65;;;;;;;-145.26;100.00;63821.50;5068087;28;20127;-64
2021/06/22 02:42:06;;;;;;;4.90;4.43;;;;;;;-145.26;100.00;63821.50;5088995;28;20525;-64
2021/06/22 02:45:30;;;;;;;10.20;4.18;;;;;;;-145.26;100.00;63821.50;5089961;28;20062;-64
2021/06/22 02:48:55;;;;;;;6.10;4.13;;;;;;;-145.26;100.00;63821.50;5090236;28;20071;-62
2021/06/22 02:52:19;;;;;;;5.13;4.63;;;;;;;-145.26;100.00;63821.50;5078149;28;20525;-62
2021/06/22 02:55:43;;;;;;;5.45;3.67;;;;;;;-145.26;100.00;63821.50;5069473;28;20110;-62
2021/06/22 02:59:07;;;;;;;7.80;4.32;;;;;;;-145.26;100.00;63821.50;5069866;28;20044;-62
2021/06/22 03:02:31;;;;;;;6.35;4.10;;;;;;;-145.26;100.00;63821.50;5069907;28;20127;-62
2021/06/22 03:05:55;;;;;;;6.28;5.53;;;;;;;-145.26;100.00;63821.50;5068788;28;20105;-64
2021/06/22 03:09:19;;;;;;;4.82;4.30;;;;;;;-145.26;100.00;63821.50;5069259;28;20131;-64
2021/06/22 03:12:43;;;;;;;6.10;4.50;;;;;;;-145.26;100.00;63821.50;5069688;28;20039;-65
2021/06/22 03:16:08;;;;;;;4.47;3.85;;;;;;;-145.26;100.00;63821.50;5069460;28;20041;-65
2021/06/22 03:19:31;;;;;;;7.50;3.03;;;;;;;-145.26;100.00;63821.50;5069101;28;20063;-64
2021/06/22 03:22:55;;;;;;;17.55;6.13;;;;;;;-145.26;100.00;63821.50;5068783;28;20502;-64
2021/06/22 03:26:19;;;;;;;3.60;3.30;;;;;;;-145.26;100.00;63821.50;5051564;28;20064;-65
2021/06/22 03:29:43;;;;;;;6.13;3.90;;;;;;;-145.26;100.00;63821.50;5069900;28;20120;-65
2021/06/22 03:33:07;;;;;;;5.45;3.80;;;;;;;-145.26;100.00;63821.50;5068161;28;20185;-65
2021/06/22 03:36:31;;;;;;;4.90;4.25;;;;;;;-145.26;100.00;63821.50;5068509;28;20036;-64
2021/06/22 03:39:55;;;;;;;5.38;4.18;;;;;;;-145.26;100.00;63821.50;5066939;28;20062;-64
2021/06/22 03:43:21;;;;;;;8.80;3.85;;;;;;;-145.26;100.00;63821.50;5068561;28;20544;-65
2021/06/22 03:46:45;;;;;;;7.50;4.20;;;;;;;-145.26;100.00;63821.50;5068599;28;20048;-64
2021/06/22 03:50:09;;;;;;;10.43;4.30;;;;;;;-145.26;100.00;63821.50;5068430;28;20071;-65
2021/06/22 03:53:33;;;;;;;5.72;3.97;;;;;;;-145.26;100.00;63821.50;5067388;28;20028;-65
2021/06/22 03:56:57;;;;;;;6.65;3.70;;;;;;;-145.26;100.00;63821.50;5067477;28;20052;-65
2021/06/22 04:00:21;;;;;;;4.47;2.83;;;;;;;-145.26;100.00;63821.50;5068622;28;20033;-65
2021/06/22 04:03:46;;;;;;;8.63;3.25;;;;;;;-145.26;100.00;63821.50;5068105;28;20071;-65
2021/06/22 04:07:11;;;;;;;3.30;2.92;;;;;;;-145.26;100.00;63821.50;5066511;28;20063;-64
2021/06/22 04:10:34;;;;;;;7.82;3.22;;;;;;;-145.26;100.00;63821.50;5068187;28;20047;-63
2021/06/22 04:13:58;;;;;;;4.63;3.00;;;;;;;-145.26;100.00;63821.50;5068110;28;20029;-65
2021/06/22 04:17:22;;;;;;;3.95;2.35;;;;;;;-145.26;100.00;63821.50;5068825;28;20530;-65
2021/06/22 04:20:46;;;;;;;3.15;2.05;;;;;;;-145.26;100.00;63821.50;5067101;28;20121;-63
2021/06/22 04:24:11;;;;;;;3.03;2.15;;;;;;;-145.26;100.00;63821.50;5067232;28;20047;-64
2021/06/22 04:27:35;;;;;;;5.60;1.90;;;;;;;-145.26;100.00;63821.50;5049991;28;20406;-64
2021/06/22 04:30:59;;;;;;;3.65;1.77;;;;;;;-145.26;100.00;63821.50;5067615;28;20044;-64
2021/06/22 04:34:23;;;;;;;5.40;1.67;;;;;;;-145.26;100.00;63821.50;5067486;28;20494;-64
2021/06/22 04:37:47;;;;;;;8.82;1.95;;;;;;;-145.26;100.00;63821.50;5067420;28;20080;-63
2021/06/22 04:41:11;;;;;;;4.13;1.50;;;;;;;-145.26;100.00;63821.50;5068069;28;20036;-64
2021/06/22 04:44:35;;;;;;;3.95;1.83;;;;;;;-145.26;100.00;63821.50;5067859;28;20075;-64
2021/06/22 04:47:59;;;;;;;2.53;1.50;;;;;;;-145.26;100.00;63821.50;5067234;28;20050;-64
2021/06/22 04:51:24;;;;;;;2.78;1.45;;;;;;;-145.26;100.00;63821.50;5067549;28;20072;-64
2021/06/22 04:54:48;;;;;;;5.97;1.70;;;;;;;-145.26;100.00;63821.50;5067208;28;20055;-64
2021/06/22 04:58:12;;;;;;;3.95;1.42;;;;;;;-145.26;100.00;63821.50;5067836;28;20048;-64
2021/06/22 05:01:37;;;;;;;5.63;1.80;;;;;;;-145.26;100.00;63821.50;5067791;28;20128;-64
2021/06/22 05:05:04;;;;;;;3.65;1.83;;;;;;;-145.26;100.00;63821.50;5067208;28;20072;-64
2021/06/22 05:08:28;;;;;;;3.03;1.60;;;;;;;-145.26;100.00;63821.50;5067746;28;20556;-64
2021/06/22 05:11:52;;;;;;;4.93;1.77;;;;;;;-145.26;100.00;63821.50;5067116;28;20037;-63
2021/06/22 05:15:16;;;;;;;3.40;1.67;;;;;;;-145.26;100.00;63821.50;5067045;28;20037;-64
2021/06/22 05:18:40;;;;;;;2.65;1.40;;;;;;;-145.26;100.00;63821.50;5067257;28;20505;-64
2021/06/22 05:22:04;;;;;;;5.05;1.50;;;;;;;-145.26;100.00;63821.50;5067128;28;20075;-65
2021/06/22 05:25:28;;;;;;;3.15;1.60;;;;;;;-145.26;100.00;63821.50;5066936;28;20123;-64
2021/06/22 05:28:52;;;;;;;6.05;1.95;;;;;;;-145.26;100.00;63821.50;5067373;28;20103;-63
2021/06/22 05:32:17;;;;;;;1.73;1.40;;;;;;;-145.26;100.00;63821.50;5067778;28;20040;-64
2021/06/22 05:35:41;;;;;;;2.58;1.63;;;;;;;-145.26;100.00;63821.50;5068906;28;20040;-64
2021/06/22 05:39:05;;;;;;;5.88;2.25;;;;;;;-145.26;100.00;63821.50;5065746;28;20040;-64
2021/06/22 05:42:29;;;;;;;2.75;1.60;;;;;;;-145.26;100.00;63821.50;5065996;28;20098;-68
2021/06/22 05:45:53;;;;;;;4.10;1.90;;;;;;;-145.26;100.00;63821.50;5067029;28;20114;-67
2021/06/22 05:49:17;;;;;;;2.78;1.70;;;;;;;-145.26;100.00;63821.50;5065159;28;20033;-64
2021/06/22 05:52:44;;;;;;;2.85;2.05;;;;;;;-145.26;100.00;63821.50;5066992;28;20036;-66
2021/06/22 05:56:08;;;;;;;4.88;1.95;;;;;;;-145.26;100.00;63821.50;5068994;28;20046;-70
2021/06/22 05:59:32;;;;;;;6.45;2.10;;;;;;;-145.26;100.00;63821.50;5072017;28;20032;-67
2021/06/22 06:02:56;;;;;;;4.13;1.85;;;;;;;-145.26;100.00;63821.50;5066015;28;20035;-68
2021/06/22 06:06:20;;;;;;;8.57;1.92;;;;;;;-145.26;100.00;63821.50;5070553;28;20052;-67
2021/06/22 06:09:46;;;;;;;2.90;2.03;;;;;;;-145.26;100.00;63821.50;5048681;28;20040;-68
2021/06/22 06:13:10;;;;;;;3.85;2.13;;;;;;;-145.26;100.00;63821.50;5070214;28;20036;-69
2021/06/22 06:16:34;;;;;;;4.07;2.25;;;;;;;-145.26;100.00;63821.50;5070629;28;20119;-68
2021/06/22 06:19:58;;;;;;;6.38;2.33;;;;;;;-145.26;100.00;63821.50;5069171;28;20036;-67
2021/06/22 06:23:23;;;;;;;5.60;2.03;;;;;;;-145.26;100.00;63821.50;5068902;28;20044;-66
2021/06/22 06:30:20;;;;;;;7.82;2.72;;;;;;;-145.26;100.00;63821.50;5069802;28;20102;-67
2021/06/22 06:33:44;;;;;;;8.57;2.63;;;;;;;-145.26;100.00;63821.50;5069844;28;20040;-66
2021/06/22 06:37:09;;;;;;;6.43;2.45;;;;;;;-145.26;100.00;63821.50;5070095;28;20052;-65
2021/06/22 06:40:33;;;;;;;5.05;2.17;;;;;;;-145.26;100.00;63821.50;5074399;28;20052;-65
2021/06/22 06:43:57;;;;;;;6.20;2.60;;;;;;;-145.26;100.00;63821.50;5051603;28;20040;-66
2021/06/22 06:47:22;;;;;;;4.03;2.35;;;;;;;-145.26;100.00;63821.50;5070207;28;20037;-66
2021/06/22 06:50:46;;;;;;;6.32;2.80;;;;;;;-145.26;100.00;63821.50;5071296;28;20044;-67
2021/06/22 06:54:10;;;;;;;5.47;2.70;;;;;;;-145.26;100.00;63821.50;5067712;28;20106;-71
2021/06/22 06:57:34;;;;;;;3.42;2.17;;;;;;;-145.26;100.00;63821.50;5089262;28;20048;-68
2021/06/22 07:00:57;;;;;;;3.88;2.67;;;;;;;-145.26;100.00;63821.50;5090103;28;20097;-70
2021/06/22 07:04:21;;;;;;;6.20;2.22;;;;;;;-145.26;100.00;63821.50;5088679;28;20133;-71
2021/06/22 07:07:45;;;;;;;5.47;2.60;;;;;;;-145.26;100.00;63821.50;5066028;28;20056;-71
2021/06/22 07:11:09;;;;;;;4.03;2.17;;;;;;;-145.26;100.00;63821.50;5069570;28;20041;-70
2021/06/22 07:14:35;;;;;;;5.30;2.38;;;;;;;-145.26;100.00;63821.50;5069224;28;20051;-70
2021/06/22 07:17:59;;;;;;;3.53;2.00;;;;;;;-145.26;100.00;63821.50;5050554;28;20048;-70
2021/06/22 07:21:23;;;;;;;2.83;2.10;;;;;;;-145.26;100.00;63821.50;5068889;28;20102;-70
2021/06/22 07:24:49;;;;;;;9.18;2.40;;;;;;;-145.26;100.00;63821.50;5065380;28;20033;-70
2021/06/22 07:28:13;;;;;;;4.93;1.95;;;;;;;-145.26;100.00;63821.50;5069213;28;20552;-70
2021/06/22 07:31:37;;;;;;;6.05;2.17;;;;;;;-145.26;100.00;63821.50;5069185;28;20048;-70
2021/06/22 07:35:02;;;;;;;3.70;2.40;;;;;;;-145.26;100.00;63821.50;5069125;28;20052;-70
2021/06/22 07:38:25;;;;;;;4.93;2.08;;;;;;;-145.26;100.00;63821.50;5069442;28;20087;-71
2021/06/22 07:41:50;;;;;;;4.00;1.90;;;;;;;-145.26;100.00;63821.50;5066181;28;20048;-69
2021/06/22 07:45:14;;;;;;;5.68;1.90;;;;;;;-145.26;100.00;63821.50;5068609;28;20033;-68
2021/06/22 07:48:38;;;;;;;2.60;1.60;;;;;;;-145.26;100.00;63821.50;5068825;28;20044;-67
2021/06/22 07:52:02;;;;;;;5.00;1.80;;;;;;;-145.26;100.00;63821.50;5067222;28;20466;-71
2021/06/22 07:55:26;;;;;;;3.35;2.22;;;;;;;-145.26;100.00;63821.50;5068212;28;20044;-70
2021/06/22 07:58:50;;;;;;;6.07;2.00;;;;;;;-145.26;100.00;63821.50;5068787;28;20125;-69
2021/06/22 08:02:15;;;;;;;5.97;1.80;;;;;;;-145.26;100.00;63821.50;5051260;28;20045;-70
2021/06/22 08:05:40;;;;;;;2.78;1.98;;;;;;;-145.26;100.00;63821.50;5069064;28;20040;-70
2021/06/22 08:09:04;;;;;;;3.03;1.50;;;;;;;-145.26;100.00;63821.50;5066901;28;20509;-69
2021/06/22 08:12:28;;;;;;;3.60;1.90;;;;;;;-145.26;100.00;63821.50;5067353;28;20028;-70
2021/06/22 08:15:53;;;;;;;4.25;1.70;;;;;;;-145.26;100.00;63821.50;5067966;28;20416;-68
2021/06/22 08:19:17;;;;;;;2.25;1.55;;;;;;;-145.26;100.00;63821.50;5068358;28;20128;-69
2021/06/22 08:22:40;;;;;;;3.70;1.55;;;;;;;-145.26;100.00;63821.50;5066597;28;20040;-68
2021/06/22 08:26:06;;;;;;;3.53;1.80;;;;;;;-145.26;100.00;63821.50;5068624;28;20130;-69
2021/06/22 08:29:30;;;;;;;5.60;1.95;;;;;;;-145.26;100.00;63821.50;5068840;28;20056;-69
2021/06/22 08:32:54;;;;;;;4.50;1.73;;;;;;;-145.26;100.00;63821.50;5048778;28;20383;-68
2021/06/22 08:36:18;;;;;;;7.03;1.95;;;;;;;-145.26;100.00;63821.50;5068252;28;20048;-68
2021/06/22 08:39:42;;;;;;;5.00;2.10;;;;;;;-145.26;100.00;63821.50;5067778;28;20044;-68
2021/06/22 08:43:10;;;;;;;3.42;1.75;;;;;;;-145.26;100.00;63821.50;5067820;28;20045;-68
2021/06/22 08:46:35;;;;;;;4.40;2.15;;;;;;;-145.26;100.00;63821.50;5068545;28;20072;-68
2021/06/22 08:49:59;;;;;;;3.38;1.52;;;;;;;-145.26;100.00;63821.50;5068418;28;20040;-68
2021/06/22 08:53:27;;;;;;;4.07;1.50;;;;;;;-145.26;100.00;63821.50;5049769;28;20040;-67
2021/06/22 08:56:52;;;;;;;4.43;1.30;;;;;;;-145.26;100.00;63821.50;5067171;28;20044;-69
2021/06/22 09:00:16;;;;;;;5.47;1.40;;;;;;;-145.26;100.00;63821.50;5066432;28;20048;-67
2021/06/22 09:03:40;;;;;;;2.83;1.33;;;;;;;-145.26;100.00;63821.50;5066903;28;20033;-67
2021/06/22 09:07:04;;;;;;;5.72;1.40;;;;;;;-145.26;100.00;63821.50;5049250;28;20044;-67
2021/06/22 09:10:35;;;;;;;4.75;1.67;;;;;;;-145.26;100.00;63821.50;5067460;28;20114;-67
2021/06/22 09:14:09;;;;;;;5.50;2.30;;;;;;;-145.26;100.00;63821.50;5049131;28;20036;-70
2021/06/22 09:17:34;;;;;;;4.32;1.42;;;;;;;-145.26;100.00;63821.50;5068469;28;20094;-66
2021/06/22 09:21:03;;;;;;;5.93;2.10;;;;;;;-145.26;100.00;63821.50;5065272;28;20485;-65
2021/06/22 09:24:31;;;;;;;5.40;1.98;;;;;;;-145.26;100.00;63821.50;5066874;28;20036;-64
2021/06/22 09:27:55;;;;;;;2.88;1.60;;;;;;;-145.26;100.00;63821.50;5065751;28;20094;-64
2021/06/22 09:31:58;;;;;;;2.75;1.65;;;;;;;-145.26;100.00;63821.50;5071447;28;20048;-64
2021/06/22 09:35:23;;;;;;;4.07;1.50;;;;;;;-145.26;100.00;63821.50;5070241;28;20044;-65
2021/06/22 09:38:52;;;;;;;3.08;2.00;;;;;;;-145.26;100.00;63821.50;5072003;28;20044;-64
2021/06/22 09:42:17;;;;;;;2.33;1.23;;;;;;;-145.26;100.00;63821.50;5070632;28;20500;-63
2021/06/22 09:45:47;;;;;;;1.90;1.42;;;;;;;-145.26;100.00;63821.50;5053204;28;20048;-65
2021/06/22 09:49:21;;;;;;;5.20;1.92;;;;;;;-145.26;100.00;63821.50;5070854;28;20521;-64
2021/06/22 09:52:46;;;;;;;4.18;1.85;;;;;;;-145.26;100.00;63821.50;5070680;28;20056;-65
2021/06/22 09:56:24;;;;;;;3.92;1.80;;;;;;;-145.26;100.00;63821.50;5074532;28;20032;-64
2021/06/22 10:00:05;;;;;;;2.85;1.17;;;;;;;-145.26;100.00;63821.50;5092938;28;20134;-64
2021/06/22 10:03:45;;;;;;;2.53;1.40;;;;;;;-145.26;100.00;63821.50;5089770;28;20080;-64
2021/06/22 10:07:10;;;;;;;2.45;1.20;;;;;;;-145.26;100.00;63821.50;5091167;28;20064;-64
2021/06/22 10:10:39;;;;;;;3.30;1.33;;;;;;;-145.26;100.00;63821.50;5065642;28;20141;-64
2021/06/22 10:14:04;;;;;;;4.22;1.65;;;;;;;-145.26;100.00;63821.50;5052077;28;20043;-64
2021/06/22 10:17:31;;;;;;;3.45;1.17;;;;;;;-145.26;100.00;63821.50;5071240;28;20151;-64
2021/06/22 10:20:56;;;;;;;3.97;1.50;;;;;;;-145.26;100.00;63821.50;5070094;28;20540;-64
2021/06/22 10:24:21;;;;;;;4.75;2.13;;;;;;;-145.26;100.00;63821.50;5068232;28;20053;-64
2021/06/22 10:27:49;;;;;;;2.17;1.50;;;;;;;-145.26;100.00;63821.50;5069740;28;20055;-64
2021/06/22 10:31:13;;;;;;;6.07;1.40;;;;;;;-145.26;100.00;63821.50;5070353;28;20044;-63
2021/06/22 10:34:37;;;;;;;3.35;1.60;;;;;;;-145.26;100.00;63821.50;5069818;28;20048;-64
2021/06/22 10:38:09;;;;;;;4.00;1.48;;;;;;;-145.26;100.00;63821.50;5070210;28;20044;-65
2021/06/22 10:41:39;;;;;;;3.37;1.70;;;;;;;-145.26;100.00;63821.50;5070312;28;20040;-65
2021/06/22 10:45:22;;;;;;;3.17;1.58;;;;;;;-145.26;100.00;63821.50;5068994;28;20089;-63
2021/06/22 10:48:47;;;;;;;3.53;1.50;;;;;;;-145.26;100.00;63821.50;5069788;28;20140;-62
2021/06/22 10:52:44;;;;;;;2.58;1.60;;;;;;;-145.26;100.00;63821.50;5051862;28;20037;-62
2021/06/22 10:56:17;;;;;;;2.55;1.40;;;;;;;-145.26;100.00;63821.50;5061231;28;20045;-62
2021/06/22 11:00:03;;;;;;;5.00;1.20;;;;;;;-145.26;100.00;63821.50;5052119;28;20036;-63
2021/06/22 11:04:03;;;;;;;2.38;1.30;;;;;;;-145.26;100.00;63821.50;5066655;28;20178;-62
2021/06/22 11:07:27;;;;;;;5.32;1.50;;;;;;;-145.26;100.00;63821.50;5068045;28;20574;-63
2021/06/22 11:11:10;;;;;;;4.13;1.25;;;;;;;-145.26;100.00;63821.50;5066412;28;20067;-63
2021/06/22 11:15:00;;;;;;;2.22;1.13;;;;;;;-145.26;100.00;63821.50;5051279;28;20048;-63
2021/06/22 11:18:53;;;;;;;3.15;1.48;;;;;;;-145.26;100.00;63821.50;5066980;28;20063;-64
2021/06/22 11:22:18;;;;;;;3.40;1.70;;;;;;;-145.26;100.00;63821.50;5069204;28;20036;-64
2021/06/22 11:25:48;;;;;;;2.47;1.73;;;;;;;-145.26;100.00;63821.50;5050716;28;20063;-65
2021/06/22 11:29:13;;;;;;;2.55;1.20;;;;;;;-145.26;100.00;63821.50;5051065;28;20084;-64
2021/06/22 11:32:41;;;;;;;5.97;1.60;;;;;;;-145.26;100.00;63821.50;5069424;28;20067;-65
2021/06/22 11:36:16;;;;;;;2.42;1.65;;;;;;;-145.26;100.00;63821.50;5067945;28;20051;-66
2021/06/22 11:39:58;;;;;;;1.75;1.35;;;;;;;-145.26;100.00;63821.50;5050103;28;20056;-64
2021/06/22 11:43:22;;;;;;;2.90;1.60;;;;;;;-145.26;100.00;63821.50;5033422;28;20048;-65
2021/06/22 11:46:46;;;;;;;2.72;1.52;;;;;;;-145.26;100.00;63821.50;5049546;28;20037;-65
2021/06/22 11:50:10;;;;;;;3.17;1.50;;;;;;;-145.26;100.00;63821.50;5048827;28;20076;-65
2021/06/22 11:53:47;;;;;;;2.08;1.20;;;;;;;-145.26;100.00;63821.50;5049616;28;20045;-76
2021/06/22 11:57:14;;;;;;;3.15;1.48;;;;;;;-145.26;100.00;63821.50;5060102;28;20502;-73
2021/06/22 12:00:38;;;;;;;2.42;1.35;;;;;;;-145.26;100.00;63821.50;5068880;28;20342;-65
2021/06/22 12:04:05;;;;;;;3.30;1.55;;;;;;;-145.26;100.00;63821.50;5068163;28;20044;-65
2021/06/22 12:07:29;;;;;;;3.15;1.42;;;;;;;-145.26;100.00;63821.50;5068835;28;20534;-65
2021/06/22 12:10:54;;;;;;;4.97;1.60;;;;;;;-145.26;100.00;63821.50;5067928;28;20124;-65
2021/06/22 12:14:31;;;;;;;3.28;1.80;;;;;;;-145.26;100.00;63821.50;5068462;28;20143;-66
2021/06/22 12:17:56;;;;;;;2.15;1.50;;;;;;;-145.26;100.00;63821.50;5067990;28;20044;-65
2021/06/22 12:21:21;;;;;;;3.72;1.45;;;;;;;-145.26;100.00;63821.50;5068401;28;20080;-65
2021/06/22 12:24:47;;;;;;;2.08;1.33;;;;;;;-145.26;100.00;63821.50;5067266;28;20401;-67
2021/06/22 12:28:11;;;;;;;2.13;1.50;;;;;;;-145.26;100.00;63821.50;5048453;28;20040;-70
2021/06/22 12:31:56;;;;;;;6.38;1.52;;;;;;;-145.26;100.00;63821.50;5030703;28;20045;-69
2021/06/22 12:35:24;;;;;;;2.08;1.45;;;;;;;-145.26;100.00;63821.50;5048567;28;20041;-70
2021/06/22 12:38:55;;;;;;;2.05;1.42;;;;;;;-145.26;100.00;63821.50;5032681;28;20048;-70
2021/06/22 12:42:25;;;;;;;1.67;1.20;;;;;;;-145.26;100.00;63821.50;5080948;28;20468;-71
2021/06/22 12:46:02;;;;;;;4.00;1.33;;;;;;;-145.26;100.00;63821.50;5087371;28;20048;-70
2021/06/22 12:49:27;;;;;;;4.72;1.52;;;;;;;-145.26;100.00;63821.50;5088391;28;20108;-71
2021/06/22 12:52:55;;;;;;;3.58;1.63;;;;;;;-145.26;100.00;63821.50;5088541;28;20104;-71
2021/06/22 12:56:31;;;;;;;2.25;1.42;;;;;;;-145.26;100.00;63821.50;5066603;28;20051;-70
2021/06/22 12:59:56;;;;;;;1.65;1.45;;;;;;;-145.26;100.00;63821.50;5067549;28;20512;-71
2021/06/22 13:03:21;;;;;;;3.63;1.40;;;;;;;-145.26;100.00;63821.50;5070551;28;20039;-70
2021/06/22 13:06:52;;;;;;;3.75;1.88;;;;;;;-145.26;100.00;63821.50;5072015;28;20052;-70
2021/06/22 13:10:18;;;;;;;3.85;1.50;;;;;;;-145.26;100.00;63821.50;5071616;28;20602;-70
2021/06/22 13:13:48;;;;;;;1.98;1.27;;;;;;;-145.26;100.00;63821.50;5071566;28;20067;-71
2021/06/22 13:17:14;;;;;;;3.65;1.45;;;;;;;-145.26;100.00;63821.50;5071971;28;20041;-71
2021/06/22 13:20:41;;;;;;;2.65;1.60;;;;;;;-145.26;100.00;63821.50;5072112;28;20049;-72
2021/06/22 13:24:05;;;;;;;2.58;1.33;;;;;;;-145.26;100.00;63821.50;5052117;28;20040;-71
2021/06/22 13:27:30;;;;;;;7.35;1.90;;;;;;;-145.26;100.00;63821.50;5066201;28;20064;-72
2021/06/22 13:31:09;;;;;;;47.63;3.90;;;;;;;-145.26;100.00;63821.50;5071343;28;20102;-63
2021/06/22 13:34:33;;;;;;;14.98;3.47;;;;;;;-145.26;100.00;63821.50;5069780;28;20035;-63
2021/06/22 13:38:03;;;;;;;14.05;5.60;;;;;;;-145.26;100.00;63821.50;5071377;28;20128;-63
2021/06/22 13:41:28;;;;;;;6.20;5.68;;;;;;;-145.26;100.00;63821.50;5065951;28;20047;-63
2021/06/22 13:44:53;;;;;;;11.00;6.60;;;;;;;-145.26;100.00;63821.50;5051682;28;20477;-65
2021/06/22 13:48:35;;;;;;;9.23;6.93;;;;;;;-145.26;100.00;63821.50;5053384;28;20029;-64
2021/06/22 13:52:06;;;;;;;8.43;7.20;;;;;;;-145.26;100.00;63821.50;5070447;28;20041;-63
2021/06/22 13:55:35;;;;;;;21.38;10.70;;;;;;;-145.26;100.00;63821.50;5070438;28;20498;-63
2021/06/22 13:59:02;;;;;;;16.65;11.30;;;;;;;-145.26;100.00;63821.50;5071067;28;20090;-62
2021/06/22 14:02:26;;;;;;;17.17;15.75;;;;;;;-145.26;100.00;63821.50;5053593;28;20146;-63
2021/06/22 14:05:50;;;;;;;15.55;14.20;;;;;;;-145.26;100.00;63821.50;5052853;28;20059;-63
2021/06/22 14:09:14;;;;;;;16.40;14.88;;;;;;;-145.26;100.00;63821.50;5051539;28;20399;-64
2021/06/22 14:12:38;;;;;;;8.60;6.63;;;;;;;-145.26;100.00;63821.50;5074714;28;20052;-64
2021/06/22 14:16:03;;;;;;;10.35;6.75;;;;;;;-145.26;100.00;63821.50;5070619;28;20605;-64
2021/06/22 14:19:26;;;;;;;9.57;7.50;;;;;;;-145.26;100.00;63821.50;5070576;28;20068;-64
2021/06/22 14:22:51;;;;;;;6.18;4.90;;;;;;;-145.26;100.00;63821.50;5069342;28;20037;-63
2021/06/22 14:26:14;;;;;;;5.20;4.80;;;;;;;-145.26;100.00;63821.50;5069128;28;20044;-64
2021/06/22 14:29:38;;;;;;;5.55;4.10;;;;;;;-145.26;100.00;63821.50;5070529;28;20041;-64
2021/06/22 14:33:03;;;;;;;5.95;1.80;;;;;;;-145.26;100.00;63821.50;5069271;28;20051;-64
2021/06/22 14:36:27;;;;;;;7.05;2.50;;;;;;;-145.26;100.00;63821.50;5069187;28;20498;-64
2021/06/22 14:39:51;;;;;;;4.13;1.75;;;;;;;-145.26;100.00;63821.50;5067927;28;20478;-65
2021/06/22 14:43:15;;;;;;;6.57;3.28;;;;;;;-145.26;100.00;63821.50;5069154;28;20139;-67
2021/06/22 14:46:39;;;;;;;4.15;2.30;;;;;;;-145.26;100.00;63821.50;5032207;28;20079;-64
